Time;durP1;ratioP1;P1;durP2;ratioP2;P2;SDS_P1;SDS_P2;PMS_P1;PMS_P2;Temp;Humidity;BMP_temperature;BMP_pressure;BME280_temperature;BME280_humidity;BME280_pressure;Samples;Min_cycle;Max_cycle;Signal;HPM_P1;HPM_P2
2024/03/23 00:01:39;;;;;;;21.50;16.10;;;;;;;7.71;100.00;98755.46;438125;1253;139537;-65
2024/03/23 00:11:45;;;;;;;20.30;16.10;;;;;;;7.63;100.00;98748.52;438512;1253;140224;-59
2024/03/23 00:21:51;;;;;;;24.10;15.20;;;;;;;7.57;100.00;98731.45;438222;1253;139204;-65
2024/03/23 00:31:56;;;;;;;20.40;17.10;;;;;;;7.53;100.00;98714.67;438493;1253;139288;-65
2024/03/23 00:42:02;;;;;;;26.00;18.80;;;;;;;7.51;100.00;98712.14;439712;1253;140811;-61
2024/03/23 00:52:07;;;;;;;24.80;17.50;;;;;;;7.43;100.00;98692.45;438868;1253;141893;-62
2024/03/23 01:02:13;;;;;;;20.90;16.30;;;;;;;7.37;100.00;98687.48;438461;1250;139537;-57
2024/03/23 01:12:18;;;;;;;26.20;17.80;;;;;;;7.33;100.00;98682.84;438126;1251;139089;-59
2024/03/23 01:22:24;;;;;;;21.70;17.80;;;;;;;7.28;100.00;98672.55;437896;1253;139318;-58
2024/03/23 01:32:29;;;;;;;24.10;18.60;;;;;;;7.24;100.00;98663.55;438033;1253;139053;-58
2024/03/23 01:42:35;;;;;;;25.10;18.00;;;;;;;7.22;100.00;98655.00;437735;1253;139685;-57
2024/03/23 01:52:40;;;;;;;23.00;17.00;;;;;;;7.21;100.00;98640.65;438614;1253;139231;-77
2024/03/23 02:02:46;;;;;;;24.00;17.00;;;;;;;7.20;100.00;98625.73;439886;1250;139558;-75
2024/03/23 02:12:51;;;;;;;26.30;16.20;;;;;;;7.23;100.00;98609.73;438251;1253;139565;-56
2024/03/23 02:22:57;;;;;;;24.10;16.50;;;;;;;7.22;100.00;98600.67;438202;1253;139226;-57
2024/03/23 02:33:03;;;;;;;23.10;17.30;;;;;;;7.25;100.00;98600.98;438877;1253;139353;-56
2024/03/23 02:43:09;;;;;;;20.30;15.70;;;;;;;7.23;100.00;98579.91;438594;1253;139474;-74
2024/03/23 02:53:14;;;;;;;21.20;17.70;;;;;;;7.24;100.00;98577.76;437876;1250;139223;-58
2024/03/23 03:03:20;;;;;;;20.00;15.20;;;;;;;7.23;100.00;98570.72;438102;1252;140118;-58
2024/03/23 03:13:25;;;;;;;24.60;17.10;;;;;;;7.27;100.00;98559.48;439363;1253;140006;-58
2024/03/23 03:23:31;;;;;;;20.50;16.70;;;;;;;7.29;100.00;98546.80;439102;1253;140055;-58
2024/03/23 03:33:36;;;;;;;26.10;17.00;;;;;;;7.35;100.00;98526.05;438921;1251;139797;-58
2024/03/23 03:43:42;;;;;;;18.50;14.10;;;;;;;7.37;100.00;98518.04;438064;1251;139231;-59
2024/03/23 03:53:47;;;;;;;19.30;15.70;;;;;;;7.41;100.00;98504.05;437883;1253;139800;-58
2024/03/23 04:03:53;;;;;;;19.70;15.40;;;;;;;7.44;100.00;98499.84;438185;1256;139037;-76
2024/03/23 04:13:58;;;;;;;20.90;14.80;;;;;;;7.46;100.00;98497.95;437870;1255;139849;-76
2024/03/23 04:24:04;;;;;;;21.40;17.40;;;;;;;7.54;100.00;98499.50;439003;1253;139571;-75
2024/03/23 04:34:10;;;;;;;20.60;15.70;;;;;;;7.62;100.00;98482.96;439271;1253;139749;-77
2024/03/23 04:44:16;;;;;;;20.50;14.60;;;;;;;7.67;100.00;98472.83;437787;1254;139438;-59
2024/03/23 04:54:21;;;;;;;22.90;16.80;;;;;;;7.70;100.00;98453.81;437749;1253;140201;-58
2024/03/23 05:04:27;;;;;;;17.60;14.20;;;;;;;7.70;100.00;98442.83;438369;1254;139000;-57
2024/03/23 05:14:32;;;;;;;17.20;13.40;;;;;;;7.71;100.00;98432.46;438246;1253;139003;-58
2024/03/23 05:24:38;;;;;;;15.70;11.50;;;;;;;7.73;100.00;98427.52;438248;1253;140054;-79
2024/03/23 05:34:44;;;;;;;15.50;12.40;;;;;;;7.73;100.00;98421.53;438475;1253;139203;-57
2024/03/23 05:44:50;;;;;;;15.20;12.40;;;;;;;7.78;100.00;98416.35;438077;1255;139714;-58
2024/03/23 05:54:55;;;;;;;15.50;12.80;;;;;;;7.87;100.00;98419.86;437924;1253;139784;-59
2024/03/23 06:05:02;;;;;;;14.70;11.80;;;;;;;7.94;100.00;98413.93;438173;1253;139588;-76
2024/03/23 06:15:10;;;;;;;15.10;12.70;;;;;;;8.04;100.00;98399.52;438357;1251;139014;-57
2024/03/23 06:25:19;;;;;;;14.00;11.40;;;;;;;8.08;100.00;98380.17;437967;1254;139999;-58
2024/03/23 06:35:24;;;;;;;13.70;11.60;;;;;;;8.14;100.00;98359.39;438343;1253;139606;-59
2024/03/23 06:45:30;;;;;;;17.20;11.30;;;;;;;8.32;100.00;98351.61;438213;1253;139006;-55
2024/03/23 06:55:35;;;;;;;14.00;11.50;;;;;;;8.64;100.00;98337.02;437983;1252;139449;-59
2024/03/23 07:05:41;;;;;;;14.70;11.20;;;;;;;9.57;100.00;98324.77;437983;1253;140225;-60
2024/03/23 07:15:54;;;;;;;12.10;10.40;;;;;;;11.74;100.00;98311.17;438098;1251;139809;-59
2024/03/23 07:26:00;;;;;;;8.00;7.20;;;;;;;14.48;100.00;98299.30;438033;1253;139913;-59
2024/03/23 07:36:08;;;;;;;6.90;6.20;;;;;;;18.81;100.00;98294.49;438429;1253;139740;-58
2024/03/23 07:46:12;;;;;;;;;;;;;;;20.75;100.00;98286.67;438339;1251;139625;-59
2024/03/23 07:56:18;;;;;;;7.20;6.50;;;;;;;22.96;95.82;98265.69;438331;1251;125350;-60
2024/03/23 08:06:24;;;;;;;7.30;5.80;;;;;;;21.61;85.58;98254.60;439299;1251;138207;-58
2024/03/23 08:16:30;;;;;;;8.80;7.50;;;;;;;18.68;85.14;98234.43;438058;1251;336664;-74
2024/03/23 08:26:38;;;;;;;7.90;7.10;;;;;;;17.75;87.29;98211.73;438320;1251;138330;-60
2024/03/23 08:36:43;;;;;;;6.80;6.10;;;;;;;21.40;88.73;98192.09;437885;1253;138991;-58
2024/03/23 08:46:49;;;;;;;6.20;5.60;;;;;;;-6.78;63.55;78539.23;437401;1254;1002031;-51
2024/03/23 08:56:54;;;;;;;6.40;5.90;;;;;;;-128.00;-1.00;-1.00;434613;1253;1059417;-54
2024/03/23 09:07:00;;;;;;;7.90;7.00;;;;;;;-128.00;-1.00;-1.00;434538;1253;1044289;-53
2024/03/23 09:17:06;;;;;;;8.50;6.50;;;;;;;-128.00;-1.00;-1.00;434109;1253;1046568;-50
2024/03/23 09:27:12;;;;;;;7.90;6.10;;;;;;;-128.00;-1.00;-1.00;434452;1253;1060533;-52
2024/03/23 09:37:17;;;;;;;6.90;6.30;;;;;;;-128.00;-1.00;-1.00;433993;1253;1060337;-52
2024/03/23 09:47:23;;;;;;;5.90;5.40;;;;;;;-128.00;-1.00;-1.00;434479;1253;1058966;-55
2024/03/23 09:57:28;;;;;;;8.30;6.10;;;;;;;-128.00;-1.00;-1.00;434431;1250;1044740;-57
2024/03/23 10:07:33;;;;;;;7.10;6.30;;;;;;;-128.00;-1.00;-1.00;434365;1251;1046280;-53
2024/03/23 10:17:39;;;;;;;6.40;5.70;;;;;;;-128.00;-1.00;-1.00;434133;1250;1064440;-55
2024/03/23 10:27:44;;;;;;;7.40;5.70;;;;;;;-128.00;-1.00;-1.00;434476;1250;1063376;-57
2024/03/23 10:37:53;;;;;;;6.40;5.30;;;;;;;-128.00;-1.00;-1.00;434362;1251;1058968;-54
2024/03/23 10:47:59;;;;;;;9.10;5.80;;;;;;;-128.00;-1.00;-1.00;434657;1253;1043866;-56
2024/03/23 10:58:05;;;;;;;5.40;4.90;;;;;;;-128.00;-1.00;-1.00;434461;1251;1047136;-55
2024/03/23 11:08:10;;;;;;;9.00;5.10;;;;;;;-128.00;-1.00;-1.00;434492;1253;1061122;-52
2024/03/23 11:18:22;;;;;;;7.00;4.90;;;;;;;-128.00;-1.00;-1.00;435037;1253;1060477;-51
2024/03/23 11:28:27;;;;;;;6.40;5.60;;;;;;;-128.00;-1.00;-1.00;434240;1253;1061076;-57
2024/03/23 11:38:38;;;;;;;7.50;5.60;;;;;;;-128.00;-1.00;-1.00;434380;1253;1045822;-54
2024/03/23 11:48:52;;;;;;;7.60;6.80;;;;;;;-128.00;-1.00;-1.00;434256;1253;1047500;-53
2024/03/23 18:58:04;;;;;;;1.70;1.50;;;;;;;4.72;99.04;98333.55;437476;1271;138751;-71
2024/03/23 19:08:07;;;;;;;4.20;3.20;;;;;;;4.68;99.32;98349.09;445652;1248;138226;-73
2024/03/23 19:18:11;;;;;;;1.60;1.30;;;;;;;4.59;99.65;98355.16;445361;1247;139355;-65
2024/03/23 19:28:15;;;;;;;1.30;1.20;;;;;;;4.46;99.75;98339.96;444294;1248;139303;-66
2024/03/23 19:38:18;;;;;;;4.90;2.30;;;;;;;4.38;99.77;98351.03;444298;1248;138854;-60
2024/03/23 19:48:23;;;;;;;2.00;1.40;;;;;;;4.33;99.94;98351.98;443842;1248;138284;-58
2024/03/23 19:58:28;;;;;;;3.40;2.70;;;;;;;4.28;100.00;98344.83;443808;1251;138703;-59
2024/03/23 20:08:33;;;;;;;2.20;1.70;;;;;;;4.20;99.91;98330.86;443195;1251;138025;-61
2024/03/23 20:18:36;;;;;;;2.40;1.90;;;;;;;4.22;100.00;98352.82;443477;1248;138169;-60
2024/03/23 20:28:39;;;;;;;23.00;2.60;;;;;;;4.30;100.00;98377.13;443847;1250;139006;-75
2024/03/23 20:38:42;;;;;;;3.20;1.90;;;;;;;4.37;100.00;98362.34;444631;1250;138917;-75
2024/03/23 20:48:49;;;;;;;2.40;2.20;;;;;;;4.39;99.93;98371.60;444219;1249;138473;-59
2024/03/23 20:58:52;;;;;;;2.70;1.90;;;;;;;4.43;99.95;98372.90;443783;1248;138328;-60
2024/03/23 21:08:55;;;;;;;3.10;2.70;;;;;;;4.44;100.00;98359.67;444140;1248;139522;-73
2024/03/23 21:18:59;;;;;;;4.30;3.00;;;;;;;4.41;100.00;98355.84;443751;1248;138407;-73
2024/03/23 21:29:02;;;;;;;3.60;3.00;;;;;;;4.42;100.00;98359.93;443368;1248;138334;-59
2024/03/23 21:39:07;;;;;;;3.00;2.80;;;;;;;4.40;100.00;98369.98;443344;1251;138329;-58
2024/03/23 21:49:10;;;;;;;3.30;2.40;;;;;;;4.34;100.00;98361.98;443772;1247;138297;-59
2024/03/23 21:59:13;;;;;;;2.80;2.60;;;;;;;4.29;100.00;98368.14;443519;1250;139431;-60
2024/03/23 22:09:17;;;;;;;3.80;2.60;;;;;;;4.23;99.98;98360.89;443711;1250;138401;-62
2024/03/23 22:19:20;;;;;;;2.00;1.80;;;;;;;4.17;100.00;98356.36;443776;1248;138246;-63
2024/03/23 22:29:23;;;;;;;2.40;2.10;;;;;;;4.18;100.00;98365.68;444040;1248;138321;-62
2024/03/23 22:39:27;;;;;;;2.70;2.40;;;;;;;4.13;100.00;98363.36;443650;1250;138438;-60
2024/03/23 22:49:31;;;;;;;4.10;3.00;;;;;;;4.05;100.00;98363.61;443887;1251;138359;-59
2024/03/23 22:59:34;;;;;;;5.50;3.60;;;;;;;3.96;100.00;98357.87;443798;1248;139117;-59
2024/03/23 23:09:37;;;;;;;4.10;3.10;;;;;;;3.82;99.80;98340.50;445237;1246;138632;-59
2024/03/23 23:19:44;;;;;;;3.90;2.90;;;;;;;3.57;99.29;98360.02;445005;1250;138754;-62
2024/03/23 23:29:48;;;;;;;3.40;3.10;;;;;;;3.25;99.43;98356.73;444843;1250;139029;-62
2024/03/23 23:39:51;;;;;;;4.10;2.90;;;;;;;3.01;99.59;98364.76;444516;1250;138317;-61
2024/03/23 23:49:54;;;;;;;4.80;3.50;;;;;;;2.82;99.85;98376.11;443772;1250;138578;-62
